Time;durP1;ratioP1;P1;durP2;ratioP2;P2;SDS_P1;SDS_P2;PMS_P1;PMS_P2;Temp;Humidity;BMP_temperature;BMP_pressure;BME280_temperature;BME280_humidity;BME280_pressure;Samples;Min_cycle;Max_cycle;Signal;HPM_P1;HPM_P2
2021/12/27 00:02:25;;;;;;;8.77;7.32;;;23.40;34.10;;;;;;5019941;28;20069;-47
2021/12/27 00:04:51;;;;;;;9.10;7.28;;;23.40;34.10;;;;;;5022954;28;20097;-47
2021/12/27 00:07:17;;;;;;;10.38;7.97;;;23.40;34.10;;;;;;5015312;28;20018;-48
2021/12/27 00:09:44;;;;;;;9.52;7.78;;;23.30;34.20;;;;;;5023097;28;20559;-48
2021/12/27 00:12:10;;;;;;;9.07;7.38;;;23.30;34.20;;;;;;5023275;28;20026;-49
2021/12/27 00:14:36;;;;;;;10.15;8.20;;;23.30;34.20;;;;;;5025459;28;20056;-48
2021/12/27 00:17:02;;;;;;;9.73;7.65;;;23.30;34.20;;;;;;5026257;28;20025;-48
2021/12/27 00:19:27;;;;;;;10.82;7.85;;;23.30;34.20;;;;;;5026255;28;20520;-48
2021/12/27 00:21:53;;;;;;;10.75;8.30;;;23.20;34.20;;;;;;5013703;28;20669;-47
2021/12/27 00:24:19;;;;;;;10.32;8.07;;;23.20;34.20;;;;;;5017356;28;20030;-48
2021/12/27 00:26:45;;;;;;;10.38;7.82;;;23.20;34.20;;;;;;5019343;28;20057;-48
2021/12/27 00:29:11;;;;;;;9.82;8.00;;;23.20;34.20;;;;;;5020739;28;20088;-46
2021/12/27 00:31:37;;;;;;;9.95;8.55;;;23.20;34.20;;;;;;5022311;28;20576;-47
2021/12/27 00:34:03;;;;;;;10.73;8.77;;;23.10;34.30;;;;;;5024788;28;20037;-47
2021/12/27 00:36:28;;;;;;;9.68;7.90;;;23.20;34.20;;;;;;5025155;28;20437;-48
2021/12/27 00:38:54;;;;;;;8.68;7.35;;;23.10;34.20;;;;;;5024720;28;20028;-48
2021/12/27 00:41:20;;;;;;;9.43;7.35;;;23.10;34.10;;;;;;5011999;28;20034;-47
2021/12/27 00:43:45;;;;;;;9.43;8.15;;;23.10;34.10;;;;;;5015675;28;20041;-47
2021/12/27 00:46:11;;;;;;;9.32;8.07;;;23.10;34.10;;;;;;5020591;28;20637;-48
2021/12/27 00:48:37;;;;;;;10.75;7.85;;;23.10;34.20;;;;;;5018825;28;20669;-47
2021/12/27 00:51:03;;;;;;;9.73;7.70;;;23.10;34.10;;;;;;5028353;28;20108;-46
2021/12/27 00:53:30;;;;;;;10.18;7.90;;;23.10;34.10;;;;;;5024860;28;20485;-47
2021/12/27 00:55:56;;;;;;;9.10;7.03;;;23.00;34.00;;;;;;5015411;28;20030;-48
2021/12/27 00:58:22;;;;;;;9.02;6.95;;;23.00;34.00;;;;;;5004825;28;20034;-48
2021/12/27 01:00:48;;;;;;;10.60;8.15;;;23.00;34.00;;;;;;5004432;28;20073;-49
2021/12/27 01:03:13;;;;;;;9.75;7.85;;;23.00;34.00;;;;;;5004256;28;20064;-49
2021/12/27 01:05:39;;;;;;;9.57;7.88;;;23.00;34.00;;;;;;5004117;28;20054;-48
2021/12/27 01:08:06;;;;;;;10.00;7.97;;;23.00;34.00;;;;;;5005006;28;20026;-48
2021/12/27 01:13:39;;;;;;;9.18;7.22;;;23.00;34.00;;;;;;5004407;28;20036;-46
2021/12/27 01:18:32;;;;;;;9.57;7.60;;;22.90;34.70;;;;;;5006264;28;20045;-48
2021/12/27 01:20:58;;;;;;;8.45;7.55;;;22.90;34.00;;;;;;5017050;28;20033;-47
2021/12/27 01:23:24;;;;;;;10.13;8.07;;;22.90;34.00;;;;;;5019780;28;20042;-47
2021/12/27 01:25:50;;;;;;;9.35;7.63;;;22.90;34.00;;;;;;5022190;28;20037;-48
2021/12/27 01:28:16;;;;;;;9.75;7.70;;;22.90;34.00;;;;;;5022689;28;20034;-47
2021/12/27 01:30:47;;;;;;;9.70;7.93;;;22.90;34.00;;;;;;5019979;28;20044;-48
2021/12/27 01:33:18;;;;;;;9.48;7.43;;;22.90;34.00;;;;;;5013894;28;20061;-48
2021/12/27 01:35:44;;;;;;;9.80;8.20;;;22.90;34.00;;;;;;5013805;28;20081;-48
2021/12/27 01:38:11;;;;;;;8.55;7.18;;;22.90;34.00;;;;;;5023154;28;20454;-47
2021/12/27 01:40:38;;;;;;;9.43;7.50;;;22.90;34.00;;;;;;5016891;28;20038;-46
2021/12/27 01:43:23;;;;;;;8.85;7.30;;;22.90;34.00;;;;;;5022551;28;20561;-48
2021/12/27 01:45:57;;;;;;;9.35;7.22;;;22.80;34.00;;;;;;5024341;28;20068;-48
2021/12/27 01:48:28;;;;;;;9.02;7.85;;;22.80;33.90;;;;;;5024371;28;20033;-48
2021/12/27 01:50:55;;;;;;;8.75;7.70;;;22.80;33.90;;;;;;5036916;28;20021;-47
2021/12/27 01:53:23;;;;;;;8.15;6.65;;;22.80;33.90;;;;;;5043599;28;20060;-47
2021/12/27 01:55:50;;;;;;;10.52;8.07;;;22.80;34.00;;;;;;5028901;28;20038;-47
2021/12/27 01:58:17;;;;;;;9.55;7.70;;;22.80;33.90;;;;;;5004602;28;20105;-47
2021/12/27 02:00:45;;;;;;;8.50;7.20;;;22.80;33.90;;;;;;5002950;28;20038;-47
2021/12/27 02:03:17;;;;;;;10.02;8.18;;;22.80;33.90;;;;;;5004389;28;20038;-47
2021/12/27 02:05:44;;;;;;;9.73;7.68;;;22.80;33.90;;;;;;5002977;28;20042;-47
2021/12/27 02:08:10;;;;;;;8.63;7.18;;;22.70;33.90;;;;;;5003302;28;20034;-49
2021/12/27 02:10:37;;;;;;;9.70;7.90;;;22.70;33.90;;;;;;5003976;28;20040;-48
2021/12/27 02:13:03;;;;;;;9.45;7.75;;;22.70;33.90;;;;;;5006667;28;20113;-47
2021/12/27 02:15:29;;;;;;;9.02;7.20;;;22.70;33.90;;;;;;5004324;28;20018;-47
2021/12/27 02:17:54;;;;;;;9.80;8.00;;;22.70;34.00;;;;;;5002650;28;20430;-48
2021/12/27 02:20:24;;;;;;;8.82;7.55;;;22.70;34.00;;;;;;5003587;28;20125;-48
2021/12/27 02:22:53;;;;;;;9.90;8.00;;;22.70;33.90;;;;;;5002887;28;20033;-48
2021/12/27 02:25:19;;;;;;;9.95;8.05;;;22.70;34.00;;;;;;5003836;28;20165;-48
2021/12/27 02:27:46;;;;;;;9.98;8.48;;;22.70;34.10;;;;;;5003502;28;20117;-48
2021/12/27 02:30:17;;;;;;;9.23;7.45;;;22.70;34.10;;;;;;5003875;28;20029;-48
2021/12/27 02:32:54;;;;;;;9.63;7.70;;;22.70;34.10;;;;;;5004431;28;20030;-48
2021/12/27 02:35:26;;;;;;;9.70;7.50;;;22.70;34.10;;;;;;5019256;28;20024;-47
2021/12/27 02:37:54;;;;;;;9.25;7.68;;;22.70;34.00;;;;;;5017979;28;20085;-48
2021/12/27 02:40:22;;;;;;;9.70;7.50;;;22.70;34.00;;;;;;5021127;28;20033;-48
2021/12/27 02:42:57;;;;;;;9.32;7.53;;;22.60;33.90;;;;;;5010633;28;20709;-49
2021/12/27 02:45:23;;;;;;;9.55;7.90;;;22.60;33.90;;;;;;5022385;28;20128;-47
2021/12/27 02:47:49;;;;;;;9.18;7.65;;;22.60;33.80;;;;;;5023181;28;20675;-47
2021/12/27 02:50:16;;;;;;;8.75;7.30;;;22.60;33.90;;;;;;5031845;28;20074;-47
2021/12/27 02:52:41;;;;;;;8.88;7.43;;;22.60;33.80;;;;;;5043763;28;20695;-47
2021/12/27 02:55:07;;;;;;;9.35;7.53;;;22.60;33.90;;;;;;5043259;28;20029;-47
2021/12/27 02:57:33;;;;;;;10.13;8.40;;;22.60;33.80;;;;;;5006400;28;20045;-47
2021/12/27 03:00:00;;;;;;;9.60;7.80;;;22.60;33.80;;;;;;5007808;28;20088;-47
2021/12/27 03:02:26;;;;;;;10.35;8.15;;;22.60;33.80;;;;;;5007592;28;20042;-48
2021/12/27 03:04:52;;;;;;;8.93;7.50;;;22.60;33.80;;;;;;5006449;28;20168;-47
2021/12/27 03:07:18;;;;;;;8.57;7.30;;;22.60;33.80;;;;;;5007801;28;20022;-50
2021/12/27 03:09:43;;;;;;;9.68;7.78;;;22.60;33.80;;;;;;5007568;28;20026;-47
2021/12/27 03:12:12;;;;;;;9.90;8.15;;;22.60;33.80;;;;;;5007061;28;20022;-48
2021/12/27 03:14:38;;;;;;;9.48;8.18;;;22.50;33.80;;;;;;5023005;28;20044;-48
2021/12/27 03:17:04;;;;;;;11.10;8.52;;;22.60;33.80;;;;;;5026214;28;20163;-48
2021/12/27 03:19:30;;;;;;;9.23;7.80;;;22.60;33.80;;;;;;5015048;28;20116;-47
2021/12/27 03:21:55;;;;;;;10.45;8.10;;;22.60;33.70;;;;;;5016349;28;20691;-49
2021/12/27 03:24:22;;;;;;;10.25;8.40;;;22.50;33.80;;;;;;5021384;28;20105;-50
2021/12/27 03:26:48;;;;;;;10.25;7.20;;;22.50;33.70;;;;;;5027057;28;20057;-47
2021/12/27 03:29:14;;;;;;;10.48;8.48;;;22.50;33.70;;;;;;5026407;28;20106;-49
2021/12/27 03:31:40;;;;;;;10.07;8.00;;;22.50;33.70;;;;;;5024835;28;20151;-47
2021/12/27 03:34:06;;;;;;;9.35;7.90;;;22.50;33.80;;;;;;5026804;28;20022;-48
2021/12/27 03:36:38;;;;;;;9.60;7.95;;;22.50;33.70;;;;;;5026916;28;20021;-47
2021/12/27 03:39:07;;;;;;;8.50;7.43;;;22.50;33.70;;;;;;5027131;28;20030;-47
2021/12/27 03:41:34;;;;;;;9.75;7.95;;;22.50;33.70;;;;;;5026870;28;20025;-48
2021/12/27 03:44:00;;;;;;;10.13;7.85;;;22.50;33.70;;;;;;5025279;28;20025;-47
2021/12/27 03:46:25;;;;;;;9.90;7.70;;;22.50;33.70;;;;;;5027093;28;20101;-47
2021/12/27 03:48:51;;;;;;;10.35;8.35;;;22.50;33.70;;;;;;5026921;28;20108;-48
2021/12/27 03:51:17;;;;;;;8.68;7.43;;;22.50;33.80;;;;;;5043263;28;20432;-47
2021/12/27 03:53:43;;;;;;;9.93;8.25;;;22.50;33.70;;;;;;5045794;28;20031;-48
2021/12/27 03:56:09;;;;;;;9.95;8.07;;;22.50;33.80;;;;;;5031788;28;20026;-47
2021/12/27 03:58:48;;;;;;;10.82;8.70;;;22.40;33.70;;;;;;5006306;28;20046;-48
2021/12/27 04:01:16;;;;;;;10.93;8.70;;;22.40;33.70;;;;;;5006403;28;20041;-48
2021/12/27 04:03:49;;;;;;;11.07;8.50;;;22.50;33.70;;;;;;5007178;28;20492;-48
2021/12/27 04:06:16;;;;;;;9.48;7.55;;;22.40;33.70;;;;;;5024049;28;20136;-47
2021/12/27 04:08:42;;;;;;;10.13;8.38;;;22.40;33.70;;;;;;5024547;28;20033;-45
2021/12/27 04:11:08;;;;;;;10.80;8.68;;;22.40;33.90;;;;;;5025041;28;20422;-46
2021/12/27 04:13:34;;;;;;;9.90;8.30;;;22.40;33.90;;;;;;5024016;28;20644;-47
2021/12/27 04:16:00;;;;;;;10.00;7.97;;;22.40;33.90;;;;;;5025411;28;20018;-48
2021/12/27 04:18:26;;;;;;;10.23;7.93;;;22.40;33.90;;;;;;5025236;28;20095;-48
2021/12/27 04:20:52;;;;;;;10.88;8.60;;;22.40;33.90;;;;;;5023228;28;20021;-48
2021/12/27 04:23:17;;;;;;;9.77;7.78;;;22.40;34.60;;;;;;5024546;28;20040;-49
2021/12/27 04:25:44;;;;;;;11.93;9.57;;;22.40;35.10;;;;;;5024363;28;20041;-46
2021/12/27 04:28:10;;;;;;;10.85;9.48;;;22.40;35.40;;;;;;5025144;28;20393;-47
2021/12/27 04:30:37;;;;;;;12.50;9.75;;;22.40;35.40;;;;;;5017386;28;20069;-49
2021/12/27 04:33:03;;;;;;;12.35;9.48;;;22.40;35.50;;;;;;5005401;28;20461;-49
2021/12/27 04:35:29;;;;;;;12.13;9.43;;;22.40;35.30;;;;;;5005983;28;20471;-47
2021/12/27 04:37:55;;;;;;;11.07;9.43;;;22.40;35.20;;;;;;5005665;28;20038;-47
2021/12/27 04:40:24;;;;;;;10.73;9.25;;;22.40;35.00;;;;;;5005794;28;20049;-48
2021/12/27 04:42:58;;;;;;;11.23;8.90;;;22.40;34.90;;;;;;5005745;28;20030;-48
2021/12/27 04:45:24;;;;;;;10.23;8.90;;;22.40;34.80;;;;;;5006196;28;20509;-47
2021/12/27 04:47:50;;;;;;;10.55;8.70;;;22.40;34.70;;;;;;5020731;28;20036;-48
2021/12/27 04:50:16;;;;;;;10.45;8.38;;;22.40;34.70;;;;;;5021161;28;20100;-46
2021/12/27 04:52:42;;;;;;;10.73;8.23;;;22.40;34.60;;;;;;5044721;28;20104;-47
2021/12/27 04:55:08;;;;;;;10.43;8.82;;;22.40;34.50;;;;;;5045104;28;20736;-47
2021/12/27 04:57:34;;;;;;;10.80;9.40;;;22.30;34.60;;;;;;5008701;28;20036;-48
2021/12/27 05:00:00;;;;;;;12.32;9.80;;;22.30;34.50;;;;;;5005726;28;20033;-49
2021/12/27 05:02:27;;;;;;;10.95;8.80;;;22.40;34.40;;;;;;5005401;28;20041;-48
2021/12/27 05:04:54;;;;;;;10.40;9.20;;;22.30;34.40;;;;;;5005420;28;20683;-47
2021/12/27 05:07:19;;;;;;;10.90;9.30;;;22.30;34.40;;;;;;5005491;28;20655;-47
2021/12/27 05:09:45;;;;;;;9.95;8.50;;;22.30;34.30;;;;;;5001835;28;20030;-48
2021/12/27 05:12:11;;;;;;;11.05;8.90;;;22.30;34.30;;;;;;5008961;28;20615;-48
2021/12/27 05:14:36;;;;;;;9.57;8.48;;;22.30;35.00;;;;;;5004945;28;20026;-48
2021/12/27 05:17:02;;;;;;;9.85;8.85;;;22.30;34.40;;;;;;5005587;28;20036;-47
2021/12/27 05:19:28;;;;;;;10.23;8.90;;;22.30;34.40;;;;;;5004456;28;20033;-46
2021/12/27 05:21:53;;;;;;;11.57;9.40;;;22.30;34.40;;;;;;5005641;28;20025;-48
2021/12/27 05:24:21;;;;;;;11.85;9.80;;;22.30;34.30;;;;;;5020359;28;20030;-49
2021/12/27 05:26:47;;;;;;;11.82;9.40;;;22.30;34.30;;;;;;5005156;28;20030;-48
2021/12/27 05:29:12;;;;;;;11.88;9.45;;;22.30;34.30;;;;;;5005721;28;20034;-46
2021/12/27 05:31:38;;;;;;;9.35;8.25;;;22.30;34.30;;;;;;5005329;28;20034;-47
2021/12/27 05:34:04;;;;;;;11.82;9.40;;;22.40;34.30;;;;;;5005198;28;20034;-47
2021/12/27 05:36:29;;;;;;;11.50;9.02;;;22.40;34.30;;;;;;5005613;28;20053;-47
2021/12/27 05:38:55;;;;;;;12.23;8.48;;;22.40;34.30;;;;;;5005042;28;20049;-48
2021/12/27 05:41:21;;;;;;;11.05;8.82;;;22.50;34.40;;;;;;5005227;28;20026;-49
2021/12/27 05:43:47;;;;;;;10.25;8.48;;;22.50;34.40;;;;;;5004769;28;20030;-50
2021/12/27 05:46:12;;;;;;;10.05;8.38;;;22.50;34.30;;;;;;5005271;28;20037;-47
2021/12/27 05:48:38;;;;;;;11.00;9.23;;;22.60;34.90;;;;;;5004731;28;20072;-47
2021/12/27 05:51:04;;;;;;;11.10;9.55;;;22.60;34.10;;;;;;5033874;28;20048;-48
2021/12/27 05:53:29;;;;;;;10.85;8.77;;;22.60;34.10;;;;;;5043988;28;20036;-47
2021/12/27 05:55:55;;;;;;;10.52;9.25;;;22.60;34.00;;;;;;5037238;28;20060;-47
2021/12/27 05:58:20;;;;;;;10.65;8.68;;;22.70;34.00;;;;;;5004642;28;20657;-48
2021/12/27 06:00:48;;;;;;;10.23;8.98;;;22.70;33.90;;;;;;5004226;28;20678;-47
2021/12/27 06:03:13;;;;;;;10.57;8.75;;;22.70;33.90;;;;;;5004314;28;20037;-49
2021/12/27 06:05:40;;;;;;;11.23;8.90;;;22.70;33.90;;;;;;5004169;28;20041;-49
2021/12/27 06:08:05;;;;;;;9.55;7.97;;;22.70;33.80;;;;;;5004461;28;20083;-48
2021/12/27 06:10:31;;;;;;;10.30;8.00;;;22.80;33.80;;;;;;5005387;28;20113;-49
2021/12/27 06:12:57;;;;;;;10.50;7.43;;;22.80;33.80;;;;;;5004018;28;20157;-48
2021/12/27 06:15:22;;;;;;;11.57;8.63;;;22.80;33.70;;;;;;5004714;28;20026;-47
2021/12/27 06:17:48;;;;;;;10.27;8.30;;;22.90;33.80;;;;;;5004816;28;20022;-48
2021/12/27 06:20:16;;;;;;;10.15;7.50;;;23.00;33.70;;;;;;5005025;28;20045;-48
2021/12/27 06:22:46;;;;;;;12.77;8.90;;;23.00;33.70;;;;;;5004616;28;20037;-47
2021/12/27 06:25:11;;;;;;;11.15;9.10;;;23.10;33.60;;;;;;5005110;28;20022;-47
2021/12/27 06:27:37;;;;;;;11.70;8.85;;;23.10;33.60;;;;;;5004404;28;20041;-48
2021/12/27 06:30:07;;;;;;;9.57;7.72;;;23.20;33.50;;;;;;5006714;28;20061;-47
2021/12/27 06:32:33;;;;;;;9.35;7.97;;;23.30;33.50;;;;;;5008050;28;20131;-48
2021/12/27 06:34:59;;;;;;;10.52;8.75;;;23.30;33.40;;;;;;5009237;28;20022;-47
2021/12/27 06:37:24;;;;;;;11.82;8.82;;;23.40;33.40;;;;;;5007089;28;20034;-49
2021/12/27 06:39:50;;;;;;;10.15;8.18;;;23.50;33.30;;;;;;5008338;28;20520;-48
2021/12/27 06:42:16;;;;;;;11.38;8.32;;;23.50;33.30;;;;;;5007968;28;20125;-48
2021/12/27 06:44:41;;;;;;;9.48;7.90;;;23.50;33.20;;;;;;5007539;28;20034;-48
2021/12/27 06:47:07;;;;;;;10.98;9.43;;;23.60;33.10;;;;;;5008602;28;20349;-48
2021/12/27 06:49:33;;;;;;;10.15;8.20;;;23.70;33.10;;;;;;5011748;28;20037;-48
2021/12/27 06:51:59;;;;;;;11.18;8.52;;;23.70;33.00;;;;;;5048262;28;20017;-48
2021/12/27 06:54:25;;;;;;;11.10;9.13;;;23.80;33.00;;;;;;5047478;28;20021;-47
2021/12/27 06:56:51;;;;;;;10.35;8.75;;;23.80;32.90;;;;;;5047666;28;20048;-48
2021/12/27 06:59:17;;;;;;;10.48;7.82;;;23.90;32.90;;;;;;5047603;28;20037;-49
2021/12/27 07:01:43;;;;;;;8.60;7.50;;;24.00;32.90;;;;;;5013216;28;20749;-48
2021/12/27 07:04:08;;;;;;;11.07;8.98;;;24.00;32.80;;;;;;5007372;28;20076;-47
2021/12/27 07:06:34;;;;;;;10.85;9.15;;;24.10;32.80;;;;;;5007696;28;20580;-47
2021/12/27 07:09:00;;;;;;;11.02;8.45;;;24.10;32.70;;;;;;5008063;28;20045;-47
2021/12/27 07:11:25;;;;;;;8.98;7.70;;;24.20;32.70;;;;;;5009310;28;20366;-46
2021/12/27 07:13:51;;;;;;;9.35;8.02;;;24.20;32.70;;;;;;5006888;28;20068;-47
2021/12/27 07:16:17;;;;;;;9.98;8.50;;;24.30;32.60;;;;;;5008105;28;20017;-47
2021/12/27 07:18:42;;;;;;;10.07;8.32;;;24.30;32.50;;;;;;5018278;28;20034;-48
2021/12/27 07:21:08;;;;;;;11.07;8.70;;;24.30;32.40;;;;;;5025440;28;20049;-48
2021/12/27 07:23:34;;;;;;;9.50;8.15;;;24.40;32.40;;;;;;5026334;28;20026;-47
2021/12/27 07:25:59;;;;;;;10.57;9.18;;;24.40;32.30;;;;;;5026792;28;20222;-48
2021/12/27 07:28:25;;;;;;;10.55;9.35;;;24.50;32.30;;;;;;5026468;28;20018;-48
2021/12/27 07:30:51;;;;;;;9.82;8.80;;;24.50;32.30;;;;;;5026421;28;20033;-48
2021/12/27 07:33:17;;;;;;;11.05;8.45;;;24.60;32.30;;;;;;5025715;28;20132;-48
2021/12/27 07:35:43;;;;;;;13.52;9.05;;;24.60;32.20;;;;;;5025822;28;20098;-48
2021/12/27 07:38:09;;;;;;;10.93;9.15;;;24.70;32.20;;;;;;5022864;28;20079;-46
2021/12/27 07:40:35;;;;;;;10.23;8.60;;;24.70;32.10;;;;;;5024610;28;20029;-45
2021/12/27 07:43:01;;;;;;;11.15;7.93;;;24.70;32.10;;;;;;5024382;28;20033;-46
2021/12/27 07:45:27;;;;;;;10.95;8.45;;;24.70;32.10;;;;;;5026211;28;20040;-46
2021/12/27 07:47:53;;;;;;;10.02;8.05;;;24.80;32.10;;;;;;5025858;28;20029;-46
2021/12/27 07:50:19;;;;;;;9.30;7.78;;;24.80;32.20;;;;;;5034253;28;20025;-46
2021/12/27 07:52:45;;;;;;;10.30;7.97;;;24.80;32.00;;;;;;5045936;28;20107;-46
2021/12/27 07:55:11;;;;;;;11.00;8.38;;;24.90;32.10;;;;;;5046072;28;20055;-46
2021/12/27 07:57:36;;;;;;;8.55;7.55;;;24.90;32.10;;;;;;5028106;28;20064;-46
2021/12/27 08:00:07;;;;;;;10.77;7.78;;;25.00;32.20;;;;;;5022764;28;20040;-46
2021/12/27 08:02:33;;;;;;;8.68;7.78;;;25.00;31.90;;;;;;5005733;28;20132;-45
2021/12/27 08:04:59;;;;;;;9.55;8.23;;;25.00;31.90;;;;;;5005846;28;20093;-46
2021/12/27 08:07:25;;;;;;;9.52;7.65;;;25.00;31.90;;;;;;5006366;28;20049;-46
2021/12/27 08:09:51;;;;;;;11.57;9.10;;;25.00;31.90;;;;;;5006548;28;20026;-46
2021/12/27 08:12:17;;;;;;;11.52;8.73;;;25.00;31.80;;;;;;5005723;28;20781;-46
2021/12/27 08:14:42;;;;;;;9.40;8.30;;;25.10;31.90;;;;;;5005937;28;20052;-46
2021/12/27 08:17:08;;;;;;;10.90;8.55;;;25.10;31.70;;;;;;5005751;28;20083;-46
2021/12/27 08:19:34;;;;;;;10.15;8.77;;;25.10;31.60;;;;;;5006282;28;20025;-46
2021/12/27 08:22:01;;;;;;;10.27;8.05;;;25.20;31.60;;;;;;5006620;28;20026;-46
2021/12/27 08:24:27;;;;;;;10.93;8.63;;;25.20;31.50;;;;;;5005764;28;20034;-46
2021/12/27 08:26:53;;;;;;;10.23;8.15;;;25.20;31.50;;;;;;5004831;28;20052;-46
2021/12/27 08:29:18;;;;;;;10.13;8.32;;;25.20;31.80;;;;;;5006224;28;20453;-46
2021/12/27 08:31:44;;;;;;;9.07;8.13;;;25.20;31.50;;;;;;5004292;28;20092;-46
2021/12/27 08:34:10;;;;;;;8.25;7.18;;;25.30;31.70;;;;;;5008687;28;20543;-46
2021/12/27 08:36:35;;;;;;;8.98;7.70;;;25.30;31.60;;;;;;5024713;28;20133;-46
2021/12/27 08:39:01;;;;;;;10.05;8.68;;;25.30;31.30;;;;;;5008661;28;20052;-45
2021/12/27 08:41:30;;;;;;;9.40;7.90;;;25.30;31.40;;;;;;5004987;28;20033;-45
2021/12/27 08:44:05;;;;;;;10.07;8.43;;;25.30;31.50;;;;;;5012568;28;20057;-46
2021/12/27 08:46:31;;;;;;;8.65;7.25;;;25.40;31.50;;;;;;5007759;28;20100;-45
2021/12/27 08:48:57;;;;;;;8.90;7.43;;;25.40;31.50;;;;;;5004386;28;20034;-45
2021/12/27 08:51:23;;;;;;;9.25;7.30;;;25.40;31.40;;;;;;5038936;28;20021;-45
2021/12/27 08:53:49;;;;;;;9.88;7.90;;;25.40;31.40;;;;;;5042555;28;20111;-45
2021/12/27 08:56:16;;;;;;;8.90;6.85;;;25.40;31.40;;;;;;5044706;28;20040;-45
2021/12/27 08:58:42;;;;;;;9.27;7.20;;;25.50;31.30;;;;;;5019831;28;20476;-45
2021/12/27 09:01:08;;;;;;;9.30;7.97;;;25.40;31.30;;;;;;5004591;28;20041;-46
2021/12/27 09:03:35;;;;;;;8.93;7.43;;;25.50;31.30;;;;;;5004332;28;20176;-45
2021/12/27 09:06:01;;;;;;;10.38;7.65;;;25.50;31.30;;;;;;5005115;28;20029;-46
2021/12/27 09:08:26;;;;;;;9.85;7.68;;;25.50;31.30;;;;;;5005353;28;20022;-46
2021/12/27 09:10:57;;;;;;;11.23;8.40;;;25.50;31.30;;;;;;5005182;28;20101;-45
2021/12/27 09:13:27;;;;;;;8.52;7.10;;;25.50;31.20;;;;;;5004813;28;20033;-45
2021/12/27 09:15:53;;;;;;;10.90;8.77;;;25.50;31.30;;;;;;5004190;28;20234;-45
2021/12/27 09:18:18;;;;;;;9.15;7.68;;;25.50;31.20;;;;;;5005300;28;20564;-46
2021/12/27 09:20:44;;;;;;;9.07;7.88;;;25.50;31.20;;;;;;5004480;28;20552;-46
2021/12/27 09:23:11;;;;;;;8.65;7.25;;;25.50;31.30;;;;;;5004512;28;20048;-46
2021/12/27 09:25:36;;;;;;;8.40;7.15;;;25.60;31.10;;;;;;5004815;28;20032;-46
2021/12/27 09:28:02;;;;;;;9.77;7.63;;;25.60;31.10;;;;;;5004821;28;20030;-47
2021/12/27 09:30:28;;;;;;;8.85;7.47;;;25.60;31.10;;;;;;5004713;28;20521;-47
2021/12/27 09:32:54;;;;;;;7.80;6.80;;;25.60;31.10;;;;;;5003929;28;20092;-47
2021/12/27 09:35:20;;;;;;;8.45;7.07;;;25.60;31.10;;;;;;5004128;28;20061;-47
2021/12/27 09:37:45;;;;;;;9.07;6.75;;;25.60;31.10;;;;;;5004202;28;20493;-48
2021/12/27 09:40:12;;;;;;;7.93;6.95;;;25.60;31.10;;;;;;5004193;28;20033;-48
2021/12/27 09:42:38;;;;;;;6.95;5.93;;;25.60;31.00;;;;;;5003607;28;20525;-48
2021/12/27 09:45:06;;;;;;;8.25;6.88;;;25.60;31.00;;;;;;5004375;28;20033;-48
2021/12/27 09:47:33;;;;;;;9.10;7.47;;;25.60;31.00;;;;;;5004300;28;20585;-47
2021/12/27 09:49:59;;;;;;;8.13;6.88;;;25.60;31.10;;;;;;5015062;28;20100;-48
2021/12/27 09:52:24;;;;;;;7.72;6.75;;;25.60;31.00;;;;;;5035252;28;20486;-49
2021/12/27 09:54:50;;;;;;;7.90;6.72;;;25.60;31.00;;;;;;5023822;28;20105;-50
2021/12/27 09:57:16;;;;;;;7.93;6.90;;;25.60;31.00;;;;;;5024478;28;20030;-48
2021/12/27 09:59:42;;;;;;;7.30;6.15;;;25.60;30.90;;;;;;5022119;28;20036;-46
2021/12/27 10:02:08;;;;;;;7.75;6.60;;;25.60;31.00;;;;;;5003999;28;20066;-49
2021/12/27 10:04:33;;;;;;;7.68;6.43;;;25.60;30.90;;;;;;5003604;28;20704;-47
2021/12/27 10:07:00;;;;;;;7.63;6.20;;;25.60;30.90;;;;;;5004515;28;20110;-46
2021/12/27 10:09:26;;;;;;;7.40;6.13;;;25.60;30.90;;;;;;5003913;28;20532;-46
2021/12/27 10:11:51;;;;;;;7.15;5.82;;;25.60;31.00;;;;;;5004149;28;20037;-48
2021/12/27 10:14:19;;;;;;;8.07;6.38;;;25.60;30.90;;;;;;5003874;28;20108;-47
2021/12/27 10:16:53;;;;;;;7.32;5.97;;;25.70;30.90;;;;;;5003508;28;20034;-49
2021/12/27 10:19:20;;;;;;;7.63;6.28;;;25.70;30.90;;;;;;5004811;28;20057;-51
2021/12/27 10:21:48;;;;;;;6.93;5.53;;;25.60;30.90;;;;;;5003902;28;20030;-46
2021/12/27 10:24:20;;;;;;;7.38;6.13;;;25.60;31.00;;;;;;5003943;28;20030;-48
2021/12/27 10:26:49;;;;;;;8.05;5.63;;;25.60;30.90;;;;;;5003976;28;20033;-46
2021/12/27 10:29:36;;;;;;;6.72;5.60;;;25.60;31.50;;;;;;5004198;28;20036;-47
2021/12/27 10:32:16;;;;;;;6.45;5.00;;;25.60;30.90;;;;;;5006697;28;20026;-48
2021/12/27 10:34:50;;;;;;;7.45;6.55;;;25.60;30.90;;;;;;5017749;28;20028;-48
2021/12/27 10:37:28;;;;;;;6.45;5.35;;;25.60;30.90;;;;;;5020094;28;20026;-48
2021/12/27 10:40:06;;;;;;;7.05;5.40;;;25.60;30.90;;;;;;5015239;28;20053;-47
2021/12/27 10:42:47;;;;;;;6.60;5.30;;;25.60;30.90;;;;;;5002653;28;20022;-48
2021/12/27 10:45:19;;;;;;;7.13;5.65;;;25.60;30.90;;;;;;5011002;28;20054;-47
2021/12/27 10:48:02;;;;;;;7.15;5.30;;;25.70;30.90;;;;;;5003026;28;20806;-49
2021/12/27 10:50:35;;;;;;;6.57;5.13;;;25.70;30.80;;;;;;5022479;28;20061;-47
2021/12/27 10:53:04;;;;;;;6.97;5.68;;;25.70;30.60;;;;;;5042289;28;20029;-48
2021/12/27 10:55:46;;;;;;;7.05;5.85;;;25.70;30.50;;;;;;5041844;28;20560;-47
2021/12/27 10:58:24;;;;;;;7.83;6.07;;;25.70;30.40;;;;;;5025498;28;20060;-48
2021/12/27 11:01:12;;;;;;;7.88;5.97;;;25.60;30.40;;;;;;5013570;28;20038;-49
2021/12/27 11:03:43;;;;;;;7.07;5.88;;;25.60;30.40;;;;;;5003245;28;20030;-46
2021/12/27 11:06:11;;;;;;;7.57;5.32;;;25.60;30.40;;;;;;5014355;28;20817;-47
2021/12/27 11:08:39;;;;;;;8.32;6.75;;;25.60;30.40;;;;;;5020941;28;20029;-48
2021/12/27 11:11:05;;;;;;;7.32;5.45;;;25.60;30.40;;;;;;5023186;28;20030;-48
2021/12/27 11:13:32;;;;;;;6.40;4.93;;;25.60;30.70;;;;;;5021447;28;20017;-47
2021/12/27 11:15:58;;;;;;;6.57;5.25;;;25.60;30.50;;;;;;5020431;28;20764;-49
2021/12/27 11:18:24;;;;;;;7.18;5.63;;;25.60;30.40;;;;;;5024967;28;20057;-48
2021/12/27 11:20:59;;;;;;;7.07;5.28;;;25.60;30.30;;;;;;5025549;28;20145;-47
2021/12/27 11:23:28;;;;;;;6.70;5.20;;;25.60;30.60;;;;;;5025623;28;20541;-49
2021/12/27 11:26:06;;;;;;;7.18;4.97;;;25.60;30.60;;;;;;5026547;28;20032;-49
2021/12/27 11:28:38;;;;;;;7.05;6.05;;;25.60;30.40;;;;;;5025486;28;20032;-49
2021/12/27 11:31:14;;;;;;;5.68;4.60;;;25.60;30.40;;;;;;5014935;28;20034;-49
2021/12/27 11:33:58;;;;;;;5.28;4.10;;;25.60;30.50;;;;;;5006476;28;20513;-48
2021/12/27 11:36:28;;;;;;;6.78;4.70;;;25.60;30.50;;;;;;5006951;28;20569;-49
2021/12/27 11:38:54;;;;;;;6.85;5.10;;;25.60;30.50;;;;;;5006729;28;20042;-47
2021/12/27 11:41:31;;;;;;;7.50;4.97;;;25.60;30.50;;;;;;5006951;28;20083;-47
2021/12/27 11:44:00;;;;;;;6.43;4.93;;;25.60;30.70;;;;;;5006190;28;20034;-47
2021/12/27 11:46:29;;;;;;;6.00;4.82;;;25.60;30.50;;;;;;5006873;28;20478;-48
2021/12/27 11:49:01;;;;;;;6.88;5.07;;;25.60;30.40;;;;;;5006240;28;20144;-48
2021/12/27 11:51:33;;;;;;;7.33;4.43;;;25.60;30.40;;;;;;5041462;28;20083;-48
2021/12/27 11:54:00;;;;;;;;;;;25.60;30.40;;;;;;5046365;28;20350;-48
2021/12/27 11:56:37;;;;;;;6.68;4.45;;;25.60;30.50;;;;;;5045813;28;19913;-48
2021/12/27 11:59:26;;;;;;;10.45;4.55;;;25.50;30.40;;;;;;5045943;28;20108;-47
2021/12/27 12:01:56;;;;;;;7.45;5.32;;;25.60;30.80;;;;;;5008984;28;20041;-49
2021/12/27 12:04:41;;;;;;;7.28;5.43;;;25.60;31.20;;;;;;5005788;28;20482;-49
2021/12/27 12:07:08;;;;;;;10.82;5.40;;;25.60;31.70;;;;;;5005886;28;20030;-48
2021/12/27 12:09:45;;;;;;;10.45;4.97;;;25.60;31.90;;;;;;5005779;28;20048;-48
2021/12/27 12:12:13;;;;;;;8.60;5.65;;;25.60;31.90;;;;;;5004080;28;20033;-48
2021/12/27 12:14:39;;;;;;;7.78;5.53;;;25.60;31.70;;;;;;5006447;28;20164;-48
2021/12/27 12:17:09;;;;;;;6.00;4.80;;;25.60;31.70;;;;;;5011683;28;20041;-48
2021/12/27 12:19:48;;;;;;;8.10;5.10;;;25.60;31.70;;;;;;5010268;28;20026;-49
2021/12/27 12:22:42;;;;;;;8.68;6.13;;;25.60;31.90;;;;;;5006502;28;20099;-48
2021/12/27 12:25:19;;;;;;;9.00;6.38;;;25.60;32.10;;;;;;5007309;28;20049;-46
2021/12/27 12:27:54;;;;;;;8.80;6.22;;;25.50;32.10;;;;;;5017576;28;20077;-46
2021/12/27 12:30:20;;;;;;;10.77;6.72;;;25.50;32.20;;;;;;5015243;28;20025;-46
2021/12/27 12:33:00;;;;;;;10.30;6.57;;;25.50;32.20;;;;;;5015586;28;20038;-46
2021/12/27 12:35:38;;;;;;;12.25;6.82;;;25.50;32.30;;;;;;5030456;28;20032;-46
2021/12/27 12:38:27;;;;;;;9.20;6.15;;;25.50;32.10;;;;;;5032953;28;20025;-46
2021/12/27 12:44:17;;;;;;;9.80;6.85;;;25.60;31.90;;;;;;5032957;28;20469;-45
2021/12/27 12:46:49;;;;;;;9.98;7.00;;;25.60;32.10;;;;;;5033018;28;20098;-46
2021/12/27 12:49:20;;;;;;;10.27;6.40;;;25.60;31.90;;;;;;5032990;28;20456;-45
2021/12/27 12:51:56;;;;;;;11.63;6.28;;;25.60;32.00;;;;;;5032843;28;20045;-46
2021/12/27 12:54:22;;;;;;;12.15;7.03;;;25.60;32.10;;;;;;5032539;28;20040;-46
2021/12/27 12:56:55;;;;;;;11.13;6.72;;;25.60;32.00;;;;;;5033006;28;20030;-45